createdAt,value
2022-11-15T00:00:11.917Z,80.43
2022-11-15T00:01:19.636Z,80.44
2022-11-15T00:02:21.201Z,80.70
2022-11-15T00:03:26.102Z,80.47
2022-11-15T00:04:28.584Z,80.62
2022-11-15T00:05:30.068Z,80.79
2022-11-15T00:06:33.044Z,80.61
2022-11-15T00:07:54.522Z,80.76
2022-11-15T00:08:59.454Z,80.70
2022-11-15T00:10:01.027Z,80.92
2022-11-15T00:11:05.138Z,80.86
2022-11-15T00:12:06.763Z,80.89
2022-11-15T00:13:10.714Z,81.11
2022-11-15T00:14:12.455Z,81.11
2022-11-15T00:15:15.025Z,80.95
2022-11-15T00:16:16.779Z,80.91
2022-11-15T00:17:19.302Z,81.31
2022-11-15T00:18:20.902Z,81.16
2022-11-15T00:19:23.403Z,81.18
2022-11-15T00:20:24.942Z,81.43
2022-11-15T00:21:28.113Z,81.37
2022-11-15T00:22:33.217Z,81.51
2022-11-15T00:23:36.003Z,81.40
2022-11-15T00:24:37.885Z,81.42
2022-11-15T00:25:40.476Z,81.48
2022-11-15T00:26:43.637Z,81.55
2022-11-15T00:27:47.132Z,81.67
2022-11-15T00:28:48.694Z,81.60
2022-11-15T00:29:51.181Z,81.50
2022-11-15T00:31:01.951Z,81.44
2022-11-15T00:32:04.499Z,81.64
2022-11-15T00:33:07.315Z,81.44
2022-11-15T00:34:11.496Z,81.71
2022-11-15T00:35:13.155Z,81.94
2022-11-15T00:36:16.084Z,81.94
2022-11-15T00:37:17.674Z,82.00
2022-11-15T00:38:20.166Z,81.81
2022-11-15T00:39:21.692Z,81.86
2022-11-15T00:40:24.213Z,81.90
2022-11-15T00:41:25.862Z,81.78
2022-11-15T00:42:29.974Z,81.96
2022-11-15T00:43:32.487Z,81.86
2022-11-15T00:44:35.272Z,82.04
2022-11-15T00:45:36.795Z,82.07
2022-11-15T00:46:39.260Z,82.04
2022-11-15T00:47:41.273Z,82.21
2022-11-15T00:48:43.854Z,82.08
2022-11-15T00:49:45.405Z,82.06
2022-11-15T00:50:48.045Z,81.99
2022-11-15T00:51:50.555Z,82.20
2022-11-15T00:52:52.247Z,82.31
2022-11-15T00:53:54.786Z,82.08
2022-11-15T00:54:56.308Z,82.04
2022-11-15T00:55:58.778Z,82.35
2022-11-15T00:57:00.304Z,82.45
2022-11-15T00:58:04.512Z,82.60
2022-11-15T00:59:07.103Z,82.60
2022-11-15T01:00:09.843Z,82.59
2022-11-15T01:01:15.022Z,82.68
2022-11-15T01:02:16.693Z,82.53
2022-11-15T01:03:19.218Z,82.44
2022-11-15T01:04:20.720Z,82.54
2022-11-15T01:05:23.255Z,82.63
2022-11-15T01:06:24.772Z,82.69
2022-11-15T01:07:27.406Z,82.78
2022-11-15T01:08:29.750Z,82.84
2022-11-15T01:09:32.285Z,82.79
2022-11-15T01:10:34.625Z,82.85
2022-11-15T01:11:37.154Z,82.90
2022-11-15T01:12:38.761Z,82.91
2022-11-15T01:13:42.679Z,82.99
2022-11-15T01:14:44.209Z,82.87
2022-11-15T01:15:46.738Z,82.89
2022-11-15T01:16:48.282Z,82.85
2022-11-15T01:17:50.750Z,82.88
2022-11-15T01:18:52.291Z,83.22
2022-11-15T01:19:54.810Z,83.07
2022-11-15T01:20:58.945Z,83.16
2022-11-15T01:22:01.427Z,83.15
2022-11-15T01:23:02.953Z,83.24
2022-11-15T01:24:06.201Z,83.28
2022-11-15T01:25:07.702Z,83.39
2022-11-15T01:26:13.419Z,83.35
2022-11-15T01:27:15.953Z,83.42
2022-11-15T01:28:18.488Z,83.41
2022-11-15T01:29:21.528Z,83.26
2022-11-15T01:30:24.056Z,83.36
2022-11-15T01:31:29.565Z,83.62
2022-11-15T01:32:32.055Z,83.55
2022-11-15T01:33:35.758Z,83.26
2022-11-15T01:34:38.417Z,83.52
2022-11-15T01:35:40.955Z,83.30
2022-11-15T01:36:43.499Z,83.55
2022-11-15T01:37:45.000Z,83.58
2022-11-15T01:38:47.604Z,83.61
2022-11-15T01:39:49.111Z,83.41
2022-11-15T01:40:51.669Z,83.57
2022-11-15T01:41:53.273Z,83.53
2022-11-15T01:42:55.802Z,83.97
2022-11-15T01:43:59.111Z,83.95
2022-11-15T01:45:03.039Z,83.61
2022-11-15T01:46:07.634Z,83.77
2022-11-15T01:47:13.409Z,83.84
2022-11-15T01:48:15.003Z,83.76
2022-11-15T01:49:21.383Z,83.71
2022-11-15T01:50:26.057Z,83.66
2022-11-15T01:51:32.839Z,83.87
2022-11-15T01:52:37.821Z,83.75
2022-11-15T01:53:43.353Z,83.87
2022-11-15T01:54:46.541Z,84.07
2022-11-15T01:55:48.710Z,83.72
2022-11-15T01:56:54.759Z,83.97
2022-11-15T01:58:00.549Z,83.96
2022-11-15T01:59:06.260Z,83.92
2022-11-15T02:00:11.154Z,83.93
2022-11-15T02:01:17.124Z,84.09
2022-11-15T02:02:18.796Z,84.25
2022-11-15T02:03:25.074Z,83.99
2022-11-15T02:04:29.431Z,84.19
2022-11-15T02:05:33.438Z,84.15
2022-11-15T02:06:35.806Z,84.20
2022-11-15T02:07:38.602Z,84.24
2022-11-15T02:08:40.109Z,84.12
2022-11-15T02:09:46.576Z,84.04
2022-11-15T02:10:48.542Z,84.15
2022-11-15T02:11:52.781Z,84.18
2022-11-15T02:12:56.427Z,84.37
2022-11-15T02:14:01.326Z,84.28
2022-11-15T02:15:05.799Z,84.15
2022-11-15T02:16:18.294Z,84.30
2022-11-15T02:17:38.555Z,84.18
2022-11-15T02:18:47.734Z,84.34
2022-11-15T02:20:21.121Z,84.21
2022-11-15T02:21:30.792Z,84.17
2022-11-15T02:22:44.463Z,84.24
2022-11-15T02:24:24.531Z,84.32
2022-11-15T02:25:41.881Z,84.25
2022-11-15T02:27:18.141Z,84.30
2022-11-15T02:28:39.119Z,84.54
2022-11-15T02:30:04.899Z,84.46
2022-11-15T02:31:15.639Z,84.14
2022-11-15T02:32:22.582Z,84.34
2022-11-15T02:33:35.057Z,84.50
2022-11-15T02:34:47.171Z,84.35
2022-11-15T02:35:59.431Z,84.39
2022-11-15T02:37:08.924Z,84.39
2022-11-15T02:38:18.071Z,84.50
2022-11-15T02:39:30.651Z,84.36
2022-11-15T02:40:40.011Z,84.62
2022-11-15T02:41:49.868Z,84.42
2022-11-15T02:43:22.602Z,84.54
2022-11-15T02:44:27.830Z,84.32
2022-11-15T02:45:33.697Z,84.48
2022-11-15T02:46:59.113Z,84.66
2022-11-15T02:48:05.382Z,84.70
2022-11-15T02:49:06.955Z,84.78
2022-11-15T02:50:12.548Z,84.55
2022-11-15T02:51:14.818Z,84.58
2022-11-15T02:52:18.813Z,84.64
2022-11-15T02:53:24.985Z,84.91
2022-11-15T02:54:30.412Z,84.74
2022-11-15T02:55:33.772Z,84.61
2022-11-15T02:56:36.607Z,84.83
2022-11-15T02:57:48.266Z,84.67
2022-11-15T02:59:02.505Z,84.88
2022-11-15T03:00:10.133Z,84.73
2022-11-15T03:01:22.913Z,84.82
2022-11-15T03:02:37.737Z,84.83
2022-11-15T03:03:54.306Z,84.75
2022-11-15T03:04:58.597Z,84.89
2022-11-15T03:06:11.311Z,84.65
2022-11-15T03:07:18.596Z,84.51
2022-11-15T03:08:34.370Z,85.11
2022-11-15T03:09:43.511Z,84.79
2022-11-15T03:10:58.410Z,84.95
2022-11-15T03:12:08.970Z,84.96
2022-11-15T03:13:20.585Z,84.73
2022-11-15T03:14:27.305Z,85.09
2022-11-15T03:15:32.605Z,85.17
2022-11-15T03:16:40.358Z,85.09
2022-11-15T03:17:50.087Z,85.07
2022-11-15T03:18:57.703Z,84.86
2022-11-15T03:20:02.118Z,85.12
2022-11-15T03:21:09.075Z,84.79
2022-11-15T03:22:15.196Z,85.10
2022-11-15T03:23:19.351Z,85.00
2022-11-15T03:24:26.056Z,84.78
2022-11-15T03:25:31.111Z,84.87
2022-11-15T03:26:35.380Z,85.30
2022-11-15T03:27:42.962Z,85.08
2022-11-15T03:28:50.750Z,85.30
2022-11-15T03:29:59.526Z,85.19
2022-11-15T03:31:23.464Z,85.44
2022-11-15T03:32:29.845Z,85.29
2022-11-15T03:33:33.268Z,85.27
2022-11-15T03:34:43.385Z,85.27
2022-11-15T03:35:46.958Z,85.20
2022-11-15T03:36:50.683Z,85.21
2022-11-15T03:37:58.513Z,85.32
2022-11-15T03:39:06.788Z,85.34
2022-11-15T03:40:10.494Z,85.33
2022-11-15T03:41:19.419Z,85.57
2022-11-15T03:42:27.348Z,85.45
2022-11-15T03:43:38.131Z,85.47
2022-11-15T03:44:46.893Z,85.35
2022-11-15T03:45:57.111Z,85.46
2022-11-15T03:47:04.307Z,85.72
2022-11-15T03:48:14.679Z,85.49
2022-11-15T03:49:30.392Z,85.50
2022-11-15T03:50:44.472Z,85.20
2022-11-15T03:51:46.169Z,85.49
2022-11-15T03:52:50.132Z,85.43
2022-11-15T03:53:52.101Z,85.45
2022-11-15T03:54:57.151Z,85.40
2022-11-15T03:55:58.911Z,85.72
2022-11-15T03:57:01.424Z,85.56
2022-11-15T03:58:03.159Z,85.63
2022-11-15T03:59:05.819Z,85.61
2022-11-15T04:00:08.797Z,85.42
2022-11-15T04:01:11.807Z,85.52
2022-11-15T04:02:14.034Z,85.53
2022-11-15T04:03:16.520Z,85.48
2022-11-15T04:04:18.048Z,85.22
2022-11-15T04:05:22.277Z,85.55
2022-11-15T04:06:23.827Z,85.59
2022-11-15T04:07:26.633Z,85.49
2022-11-15T04:08:28.479Z,85.43
2022-11-15T04:09:30.984Z,85.46
2022-11-15T04:10:32.574Z,85.17
2022-11-15T04:11:35.105Z,85.36
2022-11-15T04:12:40.271Z,85.44
2022-11-15T04:13:42.724Z,85.52
2022-11-15T04:15:04.324Z,85.56
2022-11-15T04:16:07.048Z,85.43
2022-11-15T04:17:08.580Z,85.42
2022-11-15T04:18:11.085Z,85.47
2022-11-15T04:19:33.654Z,85.55
2022-11-15T04:20:55.289Z,85.37
2022-11-15T04:22:15.394Z,85.62
2022-11-15T04:23:37.655Z,85.39
2022-11-15T04:24:40.103Z,85.62
2022-11-15T04:25:42.467Z,85.43
2022-11-15T04:26:45.069Z,85.40
2022-11-15T04:27:46.609Z,85.56
2022-11-15T04:29:03.074Z,85.19
2022-11-15T04:30:06.931Z,85.35
2022-11-15T04:31:08.451Z,85.38
2022-11-15T04:32:10.917Z,85.48
2022-11-15T04:33:12.619Z,85.40
2022-11-15T04:34:15.207Z,85.26
2022-11-15T04:35:16.737Z,85.46
2022-11-15T04:36:38.035Z,85.36
2022-11-15T04:37:45.066Z,85.22
2022-11-15T04:38:49.553Z,85.29
2022-11-15T04:39:51.992Z,85.29
2022-11-15T04:40:53.525Z,85.29
2022-11-15T04:41:56.053Z,85.21
2022-11-15T04:43:03.578Z,85.41
2022-11-15T04:44:05.688Z,85.19
2022-11-15T04:45:09.010Z,85.29
2022-11-15T04:46:10.529Z,85.37
2022-11-15T04:47:13.372Z,85.49
2022-11-15T04:48:14.896Z,85.07
2022-11-15T04:49:17.383Z,85.49
2022-11-15T04:50:19.104Z,85.45
2022-11-15T04:51:23.412Z,85.37
2022-11-15T04:52:24.950Z,85.45
2022-11-15T04:53:27.513Z,85.46
2022-11-15T04:54:29.083Z,85.53
2022-11-15T04:55:31.599Z,85.54
2022-11-15T04:56:33.163Z,85.68
2022-11-15T04:57:35.736Z,85.62
2022-11-15T04:58:37.406Z,85.62
2022-11-15T04:59:39.914Z,85.99
2022-11-15T05:00:41.588Z,85.59
2022-11-15T05:01:45.217Z,85.89
2022-11-15T05:03:05.624Z,85.78
2022-11-15T05:04:20.101Z,85.77
2022-11-15T05:05:22.617Z,85.78
2022-11-15T05:06:25.563Z,85.89
2022-11-15T05:07:28.090Z,86.12
2022-11-15T05:08:29.794Z,85.84
2022-11-15T05:09:32.442Z,85.88
2022-11-15T05:10:34.271Z,85.87
2022-11-15T05:11:36.823Z,85.88
2022-11-15T05:12:38.668Z,85.78
2022-11-15T05:13:41.212Z,86.08
2022-11-15T05:14:42.836Z,85.98
2022-11-15T05:15:45.556Z,86.00
2022-11-15T05:16:48.094Z,85.99
2022-11-15T05:17:49.674Z,86.00
2022-11-15T05:18:53.013Z,85.92
2022-11-15T05:19:54.563Z,86.00
2022-11-15T05:20:57.150Z,86.17
2022-11-15T05:22:00.279Z,86.12
2022-11-15T05:23:03.429Z,86.53
2022-11-15T05:24:06.136Z,86.17
2022-11-15T05:25:09.987Z,86.13
2022-11-15T05:26:11.903Z,86.16
2022-11-15T05:27:14.406Z,86.10
2022-11-15T05:28:15.909Z,86.27
2022-11-15T05:29:18.404Z,86.19
2022-11-15T05:30:19.929Z,86.34
2022-11-15T05:31:23.043Z,86.21
2022-11-15T05:32:26.054Z,86.19
2022-11-15T05:33:27.618Z,86.14
2022-11-15T05:34:30.114Z,86.22
2022-11-15T05:35:34.896Z,86.11
2022-11-15T05:36:39.593Z,86.28
2022-11-15T05:37:42.595Z,86.39
2022-11-15T05:38:45.788Z,86.22
2022-11-15T05:39:47.315Z,86.25
2022-11-15T05:40:49.885Z,86.29
2022-11-15T05:41:55.947Z,86.44
2022-11-15T05:42:59.407Z,86.13
2022-11-15T05:44:02.151Z,85.80
2022-11-15T05:45:07.684Z,86.23
2022-11-15T05:46:09.878Z,86.13
2022-11-15T05:47:15.561Z,86.08
2022-11-15T05:48:17.300Z,86.31
2022-11-15T05:49:22.336Z,86.07
2022-11-15T05:50:24.082Z,86.38
2022-11-15T05:51:28.653Z,86.10
2022-11-15T05:52:35.881Z,85.98
2022-11-15T05:53:39.782Z,86.08
2022-11-15T05:54:41.812Z,86.06
2022-11-15T05:55:44.463Z,85.97
2022-11-15T05:56:47.548Z,85.68
2022-11-15T05:57:49.232Z,85.97
2022-11-15T05:58:54.450Z,86.07
2022-11-15T05:59:59.823Z,85.99
2022-11-15T06:01:02.627Z,85.99
2022-11-15T06:02:04.309Z,85.98
2022-11-15T06:03:07.069Z,85.84
2022-11-15T06:04:08.634Z,85.75
2022-11-15T06:05:11.175Z,85.80
2022-11-15T06:06:16.370Z,85.81
2022-11-15T06:07:19.248Z,86.10
2022-11-15T06:08:21.079Z,85.69
2022-11-15T06:09:24.887Z,85.80
2022-11-15T06:10:26.832Z,86.08
2022-11-15T06:11:29.566Z,85.99
2022-11-15T06:12:31.091Z,85.94
2022-11-15T06:13:34.096Z,85.85
2022-11-15T06:14:36.840Z,85.79
2022-11-15T06:15:38.470Z,85.78
2022-11-15T06:16:41.007Z,86.00
2022-11-15T06:17:42.491Z,85.98
2022-11-15T06:18:44.977Z,85.97
2022-11-15T06:19:46.486Z,86.17
2022-11-15T06:20:48.979Z,86.24
2022-11-15T06:21:50.493Z,86.13
2022-11-15T06:22:52.990Z,86.11
2022-11-15T06:23:55.066Z,86.31
2022-11-15T06:25:02.837Z,86.15
2022-11-15T06:26:06.837Z,86.35
2022-11-15T06:27:09.498Z,86.39
2022-11-15T06:28:11.160Z,86.69
2022-11-15T06:29:13.646Z,86.62
2022-11-15T06:30:15.309Z,86.15
2022-11-15T06:31:17.965Z,86.14
2022-11-15T06:32:20.471Z,86.19
2022-11-15T06:33:22.931Z,86.79
2022-11-15T06:34:25.480Z,86.46
2022-11-15T06:35:27.091Z,86.79
2022-11-15T06:36:29.582Z,86.50
2022-11-15T06:37:31.152Z,86.47
2022-11-15T06:38:34.010Z,86.40
2022-11-15T06:39:35.549Z,86.55
2022-11-15T06:40:40.456Z,86.40
2022-11-15T06:41:42.929Z,86.44
2022-11-15T06:42:44.484Z,86.37
2022-11-15T06:43:47.198Z,86.41
2022-11-15T06:44:48.694Z,86.31
2022-11-15T06:45:51.186Z,86.25
2022-11-15T06:46:53.649Z,86.39
2022-11-15T06:47:55.324Z,86.35
2022-11-15T06:48:57.979Z,86.52
2022-11-15T06:49:59.684Z,86.30
2022-11-15T06:51:04.895Z,86.18
2022-11-15T06:52:07.464Z,86.14
2022-11-15T06:53:09.049Z,86.13
2022-11-15T06:54:11.569Z,86.01
2022-11-15T06:55:13.363Z,86.09
2022-11-15T06:56:17.185Z,86.06
2022-11-15T06:57:18.738Z,85.94
2022-11-15T06:58:22.954Z,86.04
2022-11-15T06:59:24.544Z,86.03
2022-11-15T07:00:27.046Z,85.90
2022-11-15T07:01:29.622Z,85.86
2022-11-15T07:02:31.626Z,85.78
2022-11-15T07:03:38.556Z,85.67
2022-11-15T07:04:40.084Z,85.47
2022-11-15T07:05:42.647Z,85.60
2022-11-15T07:06:47.126Z,85.46
2022-11-15T07:07:54.144Z,85.28
2022-11-15T07:08:55.667Z,85.66
2022-11-15T07:09:58.159Z,85.25
2022-11-15T07:11:01.267Z,85.22
2022-11-15T07:12:07.828Z,85.10
2022-11-15T07:13:09.590Z,85.03
2022-11-15T07:14:12.217Z,85.14
2022-11-15T07:15:13.883Z,84.68
2022-11-15T07:16:16.377Z,84.91
2022-11-15T07:17:17.885Z,84.78
2022-11-15T07:18:20.464Z,84.90
2022-11-15T07:19:22.003Z,84.64
2022-11-15T07:20:24.619Z,84.99
2022-11-15T07:21:27.761Z,85.00
2022-11-15T07:22:30.364Z,84.70
2022-11-15T07:23:32.717Z,84.54
2022-11-15T07:24:37.743Z,84.62
2022-11-15T07:25:40.354Z,84.44
2022-11-15T07:26:42.850Z,84.45
2022-11-15T07:27:55.231Z,84.22
2022-11-15T07:28:57.762Z,84.28
2022-11-15T07:30:00.403Z,83.78
2022-11-15T07:31:03.710Z,83.92
2022-11-15T07:32:06.351Z,84.06
2022-11-15T07:33:07.889Z,83.93
2022-11-15T07:34:12.762Z,83.97
2022-11-15T07:35:14.388Z,83.76
2022-11-15T07:36:16.912Z,83.68
2022-11-15T07:37:18.570Z,83.70
2022-11-15T07:38:21.434Z,83.54
2022-11-15T07:39:22.916Z,83.43
2022-11-15T07:40:26.170Z,83.37
2022-11-15T07:41:28.055Z,83.14
2022-11-15T07:42:51.099Z,83.25
2022-11-15T07:43:54.941Z,83.15
2022-11-15T07:44:56.560Z,83.06
2022-11-15T07:45:59.853Z,83.11
2022-11-15T07:47:01.565Z,82.93
2022-11-15T07:48:04.183Z,82.78
2022-11-15T07:49:06.851Z,83.06
2022-11-15T07:50:08.754Z,82.60
2022-11-15T07:51:14.367Z,82.76
2022-11-15T07:52:16.163Z,82.71
2022-11-15T07:53:18.665Z,82.70
2022-11-15T07:54:20.147Z,82.55
2022-11-15T07:55:23.080Z,82.56
2022-11-15T07:56:24.613Z,82.41
2022-11-15T07:57:27.093Z,82.44
2022-11-15T07:58:29.547Z,82.50
2022-11-15T07:59:32.463Z,82.40
2022-11-15T08:00:36.293Z,82.29
2022-11-15T08:01:39.279Z,82.31
2022-11-15T08:02:42.433Z,82.29
2022-11-15T08:03:44.152Z,82.64
2022-11-15T08:04:46.617Z,82.38
2022-11-15T08:05:51.769Z,82.28
2022-11-15T08:06:54.363Z,82.27
2022-11-15T08:07:56.131Z,82.21
2022-11-15T08:08:58.630Z,82.10
2022-11-15T08:10:02.020Z,82.31
2022-11-15T08:11:04.996Z,82.26
2022-11-15T08:12:06.674Z,82.33
2022-11-15T08:13:11.162Z,82.32
2022-11-15T08:14:13.667Z,82.25
2022-11-15T08:15:16.533Z,82.11
2022-11-15T08:16:18.999Z,82.31
2022-11-15T08:17:21.558Z,82.33
2022-11-15T08:18:24.269Z,81.98
2022-11-15T08:19:26.800Z,82.27
2022-11-15T08:20:31.329Z,82.30
2022-11-15T08:21:32.870Z,82.19
2022-11-15T08:22:35.623Z,82.28
2022-11-15T08:23:37.718Z,82.61
2022-11-15T08:24:40.326Z,82.30
2022-11-15T08:25:41.843Z,82.29
2022-11-15T08:26:44.387Z,82.37
2022-11-15T08:27:46.970Z,82.38
2022-11-15T08:28:48.522Z,82.35
2022-11-15T08:29:53.397Z,82.23
2022-11-15T08:31:00.654Z,82.34
2022-11-15T08:32:02.199Z,82.30
2022-11-15T08:33:04.861Z,82.39
2022-11-15T08:34:06.943Z,82.31
2022-11-15T08:35:09.879Z,82.32
2022-11-15T08:36:15.051Z,82.40
2022-11-15T08:37:17.506Z,82.71
2022-11-15T08:38:18.994Z,82.68
2022-11-15T08:39:21.467Z,82.34
2022-11-15T08:40:23.702Z,82.41
2022-11-15T08:41:29.066Z,82.22
2022-11-15T08:42:31.617Z,82.17
2022-11-15T08:43:36.249Z,82.12
2022-11-15T08:44:38.935Z,81.91
2022-11-15T08:45:41.420Z,81.90
2022-11-15T08:46:47.353Z,81.81
2022-11-15T08:47:54.185Z,81.43
2022-11-15T08:48:57.241Z,81.18
2022-11-15T08:49:58.932Z,81.09
2022-11-15T08:51:01.499Z,80.96
2022-11-15T08:52:03.546Z,80.86
2022-11-15T08:53:07.732Z,80.52
2022-11-15T08:54:10.437Z,80.74
2022-11-15T08:55:13.041Z,80.69
2022-11-15T08:56:15.978Z,80.56
2022-11-15T08:57:18.525Z,80.68
2022-11-15T08:58:20.179Z,80.59
2022-11-15T08:59:22.795Z,80.94
2022-11-15T09:00:25.388Z,80.56
2022-11-15T09:01:27.895Z,80.79
2022-11-15T09:02:31.769Z,80.43
2022-11-15T09:03:36.262Z,80.61
2022-11-15T09:04:38.811Z,80.40
2022-11-15T09:05:41.459Z,80.21
2022-11-15T09:06:43.993Z,80.44
2022-11-15T09:07:45.503Z,80.37
2022-11-15T09:08:49.132Z,80.26
2022-11-15T09:09:51.637Z,80.11
2022-11-15T09:10:53.230Z,79.92
2022-11-15T09:12:01.193Z,79.75
2022-11-15T09:13:05.064Z,79.81
2022-11-15T09:14:07.622Z,79.52
2022-11-15T09:15:11.112Z,79.61
2022-11-15T09:16:13.831Z,79.07
2022-11-15T09:17:18.085Z,79.29
2022-11-15T09:18:24.179Z,78.76
2022-11-15T09:19:25.848Z,78.54
2022-11-15T09:20:28.361Z,78.31
2022-11-15T09:21:31.073Z,78.11
2022-11-15T09:22:33.563Z,77.97
2022-11-15T09:23:36.078Z,77.82
2022-11-15T09:24:37.623Z,77.46
2022-11-15T09:25:40.176Z,77.64
2022-11-15T09:26:42.986Z,77.60
2022-11-15T09:27:45.472Z,77.71
2022-11-15T09:28:47.172Z,77.56
2022-11-15T09:29:49.735Z,77.19
2022-11-15T09:30:51.238Z,76.95
2022-11-15T09:31:53.838Z,76.95
2022-11-15T09:32:56.336Z,76.88
2022-11-15T09:33:59.269Z,76.82
2022-11-15T09:35:02.219Z,76.60
2022-11-15T09:36:06.161Z,76.59
2022-11-15T09:37:08.614Z,76.48
2022-11-15T09:38:10.258Z,76.38
2022-11-15T09:39:12.711Z,76.03
2022-11-15T09:40:17.642Z,76.05
2022-11-15T09:41:59.845Z,76.01
2022-11-15T09:43:12.567Z,75.87
2022-11-15T09:44:31.490Z,75.82
2022-11-15T09:45:39.114Z,75.62
2022-11-15T09:46:51.858Z,75.60
2022-11-15T09:48:21.051Z,75.52
2022-11-15T09:49:25.375Z,75.37
2022-11-15T09:50:35.013Z,75.20
2022-11-15T09:51:49.926Z,75.17
2022-11-15T09:52:51.450Z,74.80
2022-11-15T09:55:34.338Z,74.38
2022-11-15T09:56:39.788Z,74.45
2022-11-15T09:57:58.113Z,74.58
2022-11-15T09:59:23.349Z,74.50
2022-11-15T10:00:46.632Z,74.30
2022-11-15T10:01:59.434Z,74.08
2022-11-15T10:03:23.251Z,74.04
2022-11-15T10:04:28.117Z,73.94
2022-11-15T10:05:30.088Z,73.90
2022-11-15T10:06:36.647Z,73.81
2022-11-15T10:07:47.770Z,73.57
2022-11-15T10:08:55.807Z,73.21
2022-11-15T10:10:06.084Z,73.18
2022-11-15T10:12:34.216Z,72.81
2022-11-15T10:13:41.285Z,72.69
2022-11-15T10:14:44.349Z,72.53
2022-11-15T10:15:49.238Z,72.49
2022-11-15T10:17:18.642Z,72.38
2022-11-15T10:18:30.869Z,72.08
2022-11-15T10:19:40.541Z,72.00
2022-11-15T10:20:49.433Z,71.87
2022-11-15T10:22:01.300Z,72.11
2022-11-15T10:23:08.583Z,71.70
2022-11-15T10:24:13.689Z,71.51
2022-11-15T10:25:22.319Z,71.66
2022-11-15T10:26:25.582Z,71.65
2022-11-15T10:27:27.152Z,71.49
2022-11-15T10:28:31.665Z,71.67
2022-11-15T10:29:33.437Z,71.55
2022-11-15T10:30:38.754Z,71.20
2022-11-15T10:31:43.217Z,71.17
2022-11-15T10:32:47.987Z,70.92
2022-11-15T10:33:51.357Z,71.01
2022-11-15T10:34:55.279Z,70.97
2022-11-15T10:36:20.040Z,70.91
2022-11-15T10:37:30.973Z,70.86
2022-11-15T10:38:32.891Z,70.63
2022-11-15T10:39:36.036Z,70.41
2022-11-15T10:40:40.822Z,70.41
2022-11-15T10:41:43.264Z,70.31
2022-11-15T10:42:45.824Z,69.98
2022-11-15T10:44:03.629Z,69.93
2022-11-15T10:45:25.653Z,69.88
2022-11-15T10:47:50.642Z,69.74
2022-11-15T10:48:53.323Z,69.75
2022-11-15T10:50:02.658Z,69.57
2022-11-15T10:51:23.262Z,69.56
2022-11-15T10:52:25.464Z,69.22
2022-11-15T10:53:35.174Z,69.10
2022-11-15T10:54:40.851Z,69.10
2022-11-15T10:55:48.540Z,69.07
2022-11-15T10:56:52.009Z,69.01
2022-11-15T10:57:56.725Z,68.83
2022-11-15T10:58:59.902Z,68.78
2022-11-15T11:00:07.689Z,68.66
2022-11-15T11:01:14.626Z,68.19
2022-11-15T11:02:30.220Z,68.28
2022-11-15T11:03:38.491Z,68.29
2022-11-15T11:04:50.885Z,68.12
2022-11-15T11:06:06.221Z,67.76
2022-11-15T11:07:22.576Z,67.59
2022-11-15T11:08:25.348Z,67.76
2022-11-15T11:09:32.707Z,67.22
2022-11-15T11:10:51.146Z,67.36
2022-11-15T11:11:54.914Z,66.99
2022-11-15T11:12:57.707Z,66.82
2022-11-15T11:14:13.876Z,66.43
2022-11-15T11:15:19.381Z,66.38
2022-11-15T11:16:43.222Z,66.35
2022-11-15T11:17:59.371Z,66.14
2022-11-15T11:19:13.599Z,65.76
2022-11-15T11:20:22.713Z,65.81
2022-11-15T11:21:39.748Z,65.75
2022-11-15T11:22:54.106Z,65.49
2022-11-15T11:24:04.266Z,65.16
2022-11-15T11:25:18.626Z,65.05
2022-11-15T11:26:37.478Z,64.70
2022-11-15T11:27:48.920Z,64.91
2022-11-15T11:29:02.585Z,64.47
2022-11-15T11:30:11.696Z,64.29
2022-11-15T11:31:26.554Z,63.97
2022-11-15T11:32:42.609Z,63.79
2022-11-15T11:33:56.864Z,63.90
2022-11-15T11:35:10.387Z,63.53
2022-11-15T11:36:22.926Z,63.46
2022-11-15T11:37:33.847Z,63.28
2022-11-15T11:38:46.033Z,63.25
2022-11-15T11:40:06.135Z,62.99
2022-11-15T11:41:22.171Z,62.74
2022-11-15T11:42:35.300Z,62.19
2022-11-15T11:43:48.348Z,62.13
2022-11-15T11:45:00.152Z,62.00
2022-11-15T11:46:31.157Z,61.82
2022-11-15T11:47:39.083Z,61.71
2022-11-15T11:48:45.288Z,61.54
2022-11-15T11:49:53.129Z,61.24
2022-11-15T11:51:01.133Z,61.13
2022-11-15T11:52:11.455Z,60.96
2022-11-15T11:53:19.186Z,60.71
2022-11-15T11:54:25.322Z,60.72
2022-11-15T11:55:31.646Z,60.64
2022-11-15T11:56:36.750Z,60.47
2022-11-15T11:57:44.498Z,60.24
2022-11-15T11:58:47.257Z,60.12
2022-11-15T11:59:55.197Z,60.42
2022-11-15T12:01:08.530Z,60.06
2022-11-15T12:02:21.983Z,60.30
2022-11-15T12:03:30.473Z,60.14
2022-11-15T12:04:39.221Z,60.07
2022-11-15T12:05:45.920Z,60.02
2022-11-15T12:06:53.021Z,59.85
2022-11-15T12:08:04.140Z,59.86
2022-11-15T12:09:15.483Z,59.79
2022-11-15T12:10:24.438Z,59.86
2022-11-15T12:11:32.425Z,59.70
2022-11-15T12:12:43.372Z,59.50
2022-11-15T12:13:49.007Z,59.69
2022-11-15T12:14:55.473Z,59.37
2022-11-15T12:16:09.178Z,59.56
2022-11-15T12:17:13.364Z,59.65
2022-11-15T12:18:18.338Z,59.61
2022-11-15T12:19:20.869Z,59.46
2022-11-15T12:20:25.830Z,59.76
2022-11-15T12:21:38.574Z,59.47
2022-11-15T12:22:45.574Z,59.43
2022-11-15T12:23:51.607Z,59.68
2022-11-15T12:25:01.042Z,59.61
2022-11-15T12:26:07.600Z,59.27
2022-11-15T12:27:23.388Z,59.33
2022-11-15T12:28:37.573Z,59.42
2022-11-15T12:29:43.343Z,59.52
2022-11-15T12:30:50.054Z,59.66
2022-11-15T12:31:56.549Z,59.28
2022-11-15T12:33:00.674Z,59.43
2022-11-15T12:34:07.451Z,59.40
2022-11-15T12:35:26.205Z,59.44
2022-11-15T12:36:40.024Z,59.34
2022-11-15T12:37:51.929Z,59.27
2022-11-15T12:38:57.713Z,59.21
2022-11-15T12:40:24.166Z,59.35
2022-11-15T12:41:28.606Z,59.38
2022-11-15T12:42:41.401Z,59.45
2022-11-15T12:43:45.386Z,59.45
2022-11-15T12:45:00.040Z,59.08
2022-11-15T12:46:07.257Z,59.21
2022-11-15T12:47:25.419Z,59.51
2022-11-15T12:48:58.325Z,59.34
2022-11-15T12:50:00.862Z,59.67
2022-11-15T12:51:03.846Z,59.69
2022-11-15T12:52:09.598Z,59.59
2022-11-15T12:53:36.657Z,59.90
2022-11-15T12:55:29.914Z,59.71
2022-11-15T12:56:32.940Z,60.11
2022-11-15T12:57:43.536Z,60.00
2022-11-15T12:58:48.799Z,59.88
2022-11-15T12:59:51.416Z,59.95
2022-11-15T13:00:53.980Z,60.12
2022-11-15T13:02:02.218Z,60.11
2022-11-15T13:03:28.665Z,59.97
2022-11-15T13:04:32.825Z,60.20
2022-11-15T13:06:01.013Z,60.20
2022-11-15T13:07:06.716Z,60.61
2022-11-15T13:08:08.472Z,60.48
2022-11-15T13:09:44.270Z,60.33
2022-11-15T13:10:46.735Z,60.43
2022-11-15T13:11:54.203Z,60.34
2022-11-15T13:12:59.020Z,60.54
2022-11-15T13:14:00.563Z,60.76
2022-11-15T13:15:23.747Z,60.69
2022-11-15T13:16:26.141Z,60.47
2022-11-15T13:17:38.554Z,60.60
2022-11-15T13:18:41.856Z,60.46
2022-11-15T13:19:43.857Z,60.71
2022-11-15T13:20:47.205Z,60.61
2022-11-15T13:22:08.734Z,60.85
2022-11-15T13:23:13.737Z,60.52
2022-11-15T13:24:18.720Z,60.60
2022-11-15T13:25:43.037Z,60.67
2022-11-15T13:26:45.678Z,60.44
2022-11-15T13:27:50.418Z,60.65
2022-11-15T13:28:56.277Z,60.55
2022-11-15T13:29:57.847Z,60.60
2022-11-15T13:31:02.254Z,60.60
2022-11-15T13:32:04.807Z,60.59
2022-11-15T13:33:10.554Z,60.70
2022-11-15T13:34:50.120Z,60.06
2022-11-15T13:35:49.694Z,60.32
2022-11-15T13:36:52.208Z,60.56
2022-11-15T13:37:55.306Z,60.33
2022-11-15T13:39:01.018Z,60.41
2022-11-15T13:40:20.624Z,60.37
2022-11-15T13:41:25.468Z,60.28
2022-11-15T13:42:31.133Z,60.36
2022-11-15T13:43:37.078Z,60.36
2022-11-15T13:44:39.605Z,60.21
2022-11-15T13:45:42.068Z,60.08
2022-11-15T13:46:44.523Z,59.98
2022-11-15T13:47:47.088Z,60.28
2022-11-15T13:48:54.711Z,60.29
2022-11-15T13:49:59.256Z,60.10
2022-11-15T13:51:01.765Z,60.32
2022-11-15T13:52:07.626Z,60.35
2022-11-15T13:53:11.713Z,60.29
2022-11-15T13:54:22.327Z,60.53
2022-11-15T13:55:26.805Z,60.62
2022-11-15T13:56:31.167Z,60.65
2022-11-15T13:57:43.691Z,60.36
2022-11-15T13:58:48.256Z,60.71
2022-11-15T13:59:53.873Z,60.46
2022-11-15T14:01:02.828Z,60.50
2022-11-15T14:02:14.170Z,60.58
2022-11-15T14:03:19.782Z,60.68
2022-11-15T14:04:25.649Z,60.59
2022-11-15T14:05:27.575Z,60.67
2022-11-15T14:06:32.346Z,60.77
2022-11-15T14:07:41.778Z,60.80
2022-11-15T14:09:17.726Z,60.48
2022-11-15T14:10:29.770Z,60.67
2022-11-15T14:11:32.615Z,60.79
2022-11-15T14:12:36.724Z,61.00
2022-11-15T14:13:38.237Z,60.80
2022-11-15T14:14:48.030Z,60.96